Terminal Aerodrome Forecast
Issued by NWS

Home | Current Version | Previous Version | Text Only | Print | Product List | Glossary On
Versions: 1 2 3 4 5 6 7 8 9 10 11 12 13
000
FTUS42 KMLB 030500
TAFFPR
TAF
KFPR 030534Z 0306/0406 VRB03KT P6SM VCSH SCT025
     FM031400 11009KT P6SM VCSH SCT030 SCT250
     FM040000 11005KT P6SM VCSH BKN035=

USA.gov is the U.S. government's official web portal to all federal, state and local government web resources and services.